sensor_id;sensor_type;location;lat;lon;timestamp;temperature;humidity
15343;DHT22;7771;48.478;8.936;2024-03-17T00:01:43;9.70;99.90
15343;DHT22;7771;48.478;8.936;2024-03-17T00:14:03;9.50;99.90
15343;DHT22;7771;48.478;8.936;2024-03-17T00:16:30;9.40;99.90
15343;DHT22;7771;48.478;8.936;2024-03-17T00:21:26;9.50;99.90
15343;DHT22;7771;48.478;8.936;2024-03-17T00:26:21;9.30;99.90
15343;DHT22;7771;48.478;8.936;2024-03-17T00:28:48;9.30;99.90
15343;DHT22;7771;48.478;8.936;2024-03-17T00:31:15;9.20;99.90
15343;DHT22;7771;48.478;8.936;2024-03-17T00:33:42;9.20;99.90
15343;DHT22;7771;48.478;8.936;2024-03-17T00:36:09;9.20;99.90
15343;DHT22;7771;48.478;8.936;2024-03-17T00:38:35;9.10;99.90
15343;DHT22;7771;48.478;8.936;2024-03-17T00:41:03;9.20;99.90
15343;DHT22;7771;48.478;8.936;2024-03-17T00:43:29;9.20;99.90
15343;DHT22;7771;48.478;8.936;2024-03-17T00:48:23;9.10;99.90
15343;DHT22;7771;48.478;8.936;2024-03-17T00:50:55;9.10;99.90
15343;DHT22;7771;48.478;8.936;2024-03-17T00:53:22;9.20;99.90
15343;DHT22;7771;48.478;8.936;2024-03-17T00:55:52;9.20;99.90
15343;DHT22;7771;48.478;8.936;2024-03-17T00:58:20;9.20;99.90
15343;DHT22;7771;48.478;8.936;2024-03-17T01:00:47;9.10;99.90
15343;DHT22;7771;48.478;8.936;2024-03-17T01:03:15;9.10;99.90
15343;DHT22;7771;48.478;8.936;2024-03-17T01:05:41;9.10;99.90
15343;DHT22;7771;48.478;8.936;2024-03-17T01:08:09;9.10;99.90
15343;DHT22;7771;48.478;8.936;2024-03-17T01:10:38;9.10;99.90
15343;DHT22;7771;48.478;8.936;2024-03-17T01:13:05;9.10;99.90
15343;DHT22;7771;48.478;8.936;2024-03-17T01:15:31;9.10;99.90
15343;DHT22;7771;48.478;8.936;2024-03-17T01:17:58;9.20;99.90
15343;DHT22;7771;48.478;8.936;2024-03-17T01:20:26;9.20;99.90
15343;DHT22;7771;48.478;8.936;2024-03-17T01:22:53;9.20;99.90
15343;DHT22;7771;48.478;8.936;2024-03-17T01:25:20;9.20;99.90
15343;DHT22;7771;48.478;8.936;2024-03-17T01:32:43;9.30;99.90
15343;DHT22;7771;48.478;8.936;2024-03-17T01:35:10;9.30;99.90
15343;DHT22;7771;48.478;8.936;2024-03-17T01:37:37;9.30;99.90
15343;DHT22;7771;48.478;8.936;2024-03-17T01:40:05;9.30;99.90
15343;DHT22;7771;48.478;8.936;2024-03-17T01:42:34;9.40;99.90
15343;DHT22;7771;48.478;8.936;2024-03-17T01:45:00;9.40;99.90
15343;DHT22;7771;48.478;8.936;2024-03-17T01:47:27;9.40;99.90
15343;DHT22;7771;48.478;8.936;2024-03-17T01:49:55;9.30;99.90
15343;DHT22;7771;48.478;8.936;2024-03-17T01:52:22;9.30;99.90
15343;DHT22;7771;48.478;8.936;2024-03-17T01:54:49;9.30;99.90
15343;DHT22;7771;48.478;8.936;2024-03-17T01:57:15;9.30;99.90
15343;DHT22;7771;48.478;8.936;2024-03-17T01:59:43;9.30;99.90
15343;DHT22;7771;48.478;8.936;2024-03-17T02:02:10;9.30;99.90
15343;DHT22;7771;48.478;8.936;2024-03-17T02:04:37;9.30;99.90
15343;DHT22;7771;48.478;8.936;2024-03-17T02:07:03;9.30;99.90
15343;DHT22;7771;48.478;8.936;2024-03-17T02:11:58;9.40;99.90
15343;DHT22;7771;48.478;8.936;2024-03-17T02:14:25;9.40;99.90
15343;DHT22;7771;48.478;8.936;2024-03-17T02:16:53;9.40;99.90
15343;DHT22;7771;48.478;8.936;2024-03-17T02:19:19;9.50;99.90
15343;DHT22;7771;48.478;8.936;2024-03-17T02:24:14;9.50;99.90
15343;DHT22;7771;48.478;8.936;2024-03-17T02:26:41;9.50;99.90
15343;DHT22;7771;48.478;8.936;2024-03-17T02:29:09;9.50;99.90
15343;DHT22;7771;48.478;8.936;2024-03-17T02:31:36;9.50;99.90
15343;DHT22;7771;48.478;8.936;2024-03-17T02:36:30;9.50;99.90
15343;DHT22;7771;48.478;8.936;2024-03-17T02:38:57;9.50;99.90
15343;DHT22;7771;48.478;8.936;2024-03-17T02:41:30;9.50;99.90
15343;DHT22;7771;48.478;8.936;2024-03-17T02:43:56;9.50;99.90
15343;DHT22;7771;48.478;8.936;2024-03-17T02:46:24;9.50;99.90
15343;DHT22;7771;48.478;8.936;2024-03-17T02:48:51;9.50;99.90
15343;DHT22;7771;48.478;8.936;2024-03-17T02:51:18;9.50;99.90
15343;DHT22;7771;48.478;8.936;2024-03-17T02:53:45;9.50;99.90
15343;DHT22;7771;48.478;8.936;2024-03-17T02:56:13;9.50;99.90
15343;DHT22;7771;48.478;8.936;2024-03-17T02:58:40;9.50;99.90
15343;DHT22;7771;48.478;8.936;2024-03-17T03:03:36;9.50;99.90
15343;DHT22;7771;48.478;8.936;2024-03-17T03:06:04;9.60;99.90
15343;DHT22;7771;48.478;8.936;2024-03-17T03:08:31;9.60;99.90
15343;DHT22;7771;48.478;8.936;2024-03-17T03:10:58;9.50;99.90
15343;DHT22;7771;48.478;8.936;2024-03-17T03:13:26;9.50;99.90
15343;DHT22;7771;48.478;8.936;2024-03-17T03:15:54;9.50;99.90
15343;DHT22;7771;48.478;8.936;2024-03-17T03:18:21;9.40;99.90
15343;DHT22;7771;48.478;8.936;2024-03-17T03:20:50;9.50;99.90
15343;DHT22;7771;48.478;8.936;2024-03-17T03:23:16;9.50;99.90
15343;DHT22;7771;48.478;8.936;2024-03-17T03:25:43;9.50;99.90
15343;DHT22;7771;48.478;8.936;2024-03-17T03:28:09;9.50;99.90
15343;DHT22;7771;48.478;8.936;2024-03-17T03:30:37;9.50;99.90
15343;DHT22;7771;48.478;8.936;2024-03-17T03:33:04;9.50;99.90
15343;DHT22;7771;48.478;8.936;2024-03-17T03:35:31;9.50;99.90
15343;DHT22;7771;48.478;8.936;2024-03-17T03:37:59;9.50;99.90
15343;DHT22;7771;48.478;8.936;2024-03-17T03:40:26;9.60;99.90
15343;DHT22;7771;48.478;8.936;2024-03-17T03:42:53;9.60;99.90
15343;DHT22;7771;48.478;8.936;2024-03-17T03:45:19;9.60;99.90
15343;DHT22;7771;48.478;8.936;2024-03-17T03:47:46;9.60;99.90
15343;DHT22;7771;48.478;8.936;2024-03-17T03:50:14;9.50;99.90
15343;DHT22;7771;48.478;8.936;2024-03-17T03:52:41;9.60;99.90
15343;DHT22;7771;48.478;8.936;2024-03-17T03:55:09;9.60;99.90
15343;DHT22;7771;48.478;8.936;2024-03-17T03:57:36;9.50;99.90
15343;DHT22;7771;48.478;8.936;2024-03-17T04:00:04;9.50;99.90
15343;DHT22;7771;48.478;8.936;2024-03-17T04:07:28;9.60;99.90
15343;DHT22;7771;48.478;8.936;2024-03-17T04:09:56;9.50;99.90
15343;DHT22;7771;48.478;8.936;2024-03-17T04:12:24;9.50;99.90
15343;DHT22;7771;48.478;8.936;2024-03-17T04:14:50;9.50;99.90
15343;DHT22;7771;48.478;8.936;2024-03-17T04:17:18;9.50;99.90
15343;DHT22;7771;48.478;8.936;2024-03-17T04:19:47;9.50;99.90
15343;DHT22;7771;48.478;8.936;2024-03-17T04:22:13;9.50;99.90
15343;DHT22;7771;48.478;8.936;2024-03-17T04:24:41;9.40;99.90
15343;DHT22;7771;48.478;8.936;2024-03-17T04:29:37;9.40;99.90
15343;DHT22;7771;48.478;8.936;2024-03-17T04:32:04;9.40;99.90
15343;DHT22;7771;48.478;8.936;2024-03-17T04:34:32;9.40;99.90
15343;DHT22;7771;48.478;8.936;2024-03-17T04:36:59;9.40;99.90
15343;DHT22;7771;48.478;8.936;2024-03-17T04:39:26;9.40;99.90
15343;DHT22;7771;48.478;8.936;2024-03-17T04:41:53;9.50;99.90
15343;DHT22;7771;48.478;8.936;2024-03-17T04:44:19;9.40;99.90
15343;DHT22;7771;48.478;8.936;2024-03-17T04:49:14;9.50;99.90
15343;DHT22;7771;48.478;8.936;2024-03-17T04:54:09;9.40;99.90
15343;DHT22;7771;48.478;8.936;2024-03-17T04:56:36;9.40;99.90
15343;DHT22;7771;48.478;8.936;2024-03-17T04:59:04;9.40;99.90
15343;DHT22;7771;48.478;8.936;2024-03-17T05:01:31;9.50;99.90
15343;DHT22;7771;48.478;8.936;2024-03-17T05:03:57;9.50;99.90
15343;DHT22;7771;48.478;8.936;2024-03-17T05:06:24;9.50;99.90
15343;DHT22;7771;48.478;8.936;2024-03-17T05:08:52;9.50;99.90
15343;DHT22;7771;48.478;8.936;2024-03-17T05:11:19;9.50;99.90
15343;DHT22;7771;48.478;8.936;2024-03-17T05:13:46;9.50;99.90
15343;DHT22;7771;48.478;8.936;2024-03-17T05:16:13;9.50;99.90
15343;DHT22;7771;48.478;8.936;2024-03-17T05:18:41;9.50;99.90
15343;DHT22;7771;48.478;8.936;2024-03-17T05:21:08;9.50;99.90
15343;DHT22;7771;48.478;8.936;2024-03-17T05:23:36;9.50;99.90
15343;DHT22;7771;48.478;8.936;2024-03-17T05:26:04;9.50;99.90
15343;DHT22;7771;48.478;8.936;2024-03-17T05:28:30;9.50;99.90
15343;DHT22;7771;48.478;8.936;2024-03-17T05:30:58;9.50;99.90
15343;DHT22;7771;48.478;8.936;2024-03-17T05:33:25;9.50;99.90
15343;DHT22;7771;48.478;8.936;2024-03-17T05:35:51;9.50;99.90
15343;DHT22;7771;48.478;8.936;2024-03-17T05:38:20;9.50;99.90
15343;DHT22;7771;48.478;8.936;2024-03-17T05:43:37;9.50;99.90
15343;DHT22;7771;48.478;8.936;2024-03-17T05:46:03;9.50;99.90
15343;DHT22;7771;48.478;8.936;2024-03-17T05:48:31;9.50;99.90
15343;DHT22;7771;48.478;8.936;2024-03-17T05:51:00;9.60;99.90
15343;DHT22;7771;48.478;8.936;2024-03-17T05:53:25;9.60;99.90
15343;DHT22;7771;48.478;8.936;2024-03-17T05:58:19;9.60;99.90
15343;DHT22;7771;48.478;8.936;2024-03-17T06:00:47;9.60;99.90
15343;DHT22;7771;48.478;8.936;2024-03-17T06:03:14;9.70;99.90
15343;DHT22;7771;48.478;8.936;2024-03-17T06:05:43;9.70;99.90
15343;DHT22;7771;48.478;8.936;2024-03-17T06:10:37;9.70;99.90
15343;DHT22;7771;48.478;8.936;2024-03-17T06:13:05;9.70;99.90
15343;DHT22;7771;48.478;8.936;2024-03-17T06:15:31;9.70;99.90
15343;DHT22;7771;48.478;8.936;2024-03-17T06:17:58;9.70;99.90
15343;DHT22;7771;48.478;8.936;2024-03-17T06:20:25;9.70;99.90
15343;DHT22;7771;48.478;8.936;2024-03-17T06:22:55;9.80;99.90
15343;DHT22;7771;48.478;8.936;2024-03-17T06:25:22;9.90;99.90
15343;DHT22;7771;48.478;8.936;2024-03-17T06:27:50;9.90;99.90
15343;DHT22;7771;48.478;8.936;2024-03-17T06:30:18;9.90;99.90
15343;DHT22;7771;48.478;8.936;2024-03-17T06:32:45;10.00;99.90
15343;DHT22;7771;48.478;8.936;2024-03-17T06:35:13;10.00;99.90
15343;DHT22;7771;48.478;8.936;2024-03-17T06:37:42;10.00;99.90
15343;DHT22;7771;48.478;8.936;2024-03-17T06:40:12;10.10;99.90
15343;DHT22;7771;48.478;8.936;2024-03-17T06:42:40;10.10;99.90
15343;DHT22;7771;48.478;8.936;2024-03-17T06:45:06;10.10;99.90
15343;DHT22;7771;48.478;8.936;2024-03-17T06:47:35;10.10;99.90
15343;DHT22;7771;48.478;8.936;2024-03-17T06:50:04;10.20;99.90
15343;DHT22;7771;48.478;8.936;2024-03-17T06:52:32;10.20;99.90
15343;DHT22;7771;48.478;8.936;2024-03-17T06:55:00;10.20;99.90
15343;DHT22;7771;48.478;8.936;2024-03-17T06:57:28;10.30;99.90
15343;DHT22;7771;48.478;8.936;2024-03-17T06:59:55;10.30;99.90
15343;DHT22;7771;48.478;8.936;2024-03-17T07:02:22;10.40;99.90
15343;DHT22;7771;48.478;8.936;2024-03-17T07:04:49;10.40;99.90
15343;DHT22;7771;48.478;8.936;2024-03-17T07:07:16;10.40;99.90
15343;DHT22;7771;48.478;8.936;2024-03-17T07:12:11;10.50;99.90
15343;DHT22;7771;48.478;8.936;2024-03-17T07:17:07;10.60;99.90
15343;DHT22;7771;48.478;8.936;2024-03-17T07:19:34;10.70;99.90
15343;DHT22;7771;48.478;8.936;2024-03-17T07:24:29;10.90;99.90
15343;DHT22;7771;48.478;8.936;2024-03-17T07:26:55;11.00;99.90
15343;DHT22;7771;48.478;8.936;2024-03-17T07:29:23;11.10;99.90
15343;DHT22;7771;48.478;8.936;2024-03-17T07:31:51;11.20;99.90
15343;DHT22;7771;48.478;8.936;2024-03-17T07:34:17;11.40;99.90
15343;DHT22;7771;48.478;8.936;2024-03-17T07:39:13;11.60;99.90
15343;DHT22;7771;48.478;8.936;2024-03-17T07:41:40;11.80;99.90
15343;DHT22;7771;48.478;8.936;2024-03-17T07:44:07;11.90;99.90
15343;DHT22;7771;48.478;8.936;2024-03-17T07:46:33;12.00;99.90
15343;DHT22;7771;48.478;8.936;2024-03-17T07:49:00;12.20;99.90
15343;DHT22;7771;48.478;8.936;2024-03-17T07:51:27;12.20;99.90
15343;DHT22;7771;48.478;8.936;2024-03-17T07:53:55;12.30;99.90
15343;DHT22;7771;48.478;8.936;2024-03-17T07:56:22;12.30;99.90
15343;DHT22;7771;48.478;8.936;2024-03-17T07:58:49;12.40;99.90
15343;DHT22;7771;48.478;8.936;2024-03-17T08:01:16;12.50;99.90
15343;DHT22;7771;48.478;8.936;2024-03-17T08:03:45;12.50;99.90
15343;DHT22;7771;48.478;8.936;2024-03-17T08:06:12;12.60;99.90
15343;DHT22;7771;48.478;8.936;2024-03-17T08:08:40;12.70;99.90
15343;DHT22;7771;48.478;8.936;2024-03-17T08:11:07;12.80;99.90
15343;DHT22;7771;48.478;8.936;2024-03-17T08:13:49;12.90;99.90
15343;DHT22;7771;48.478;8.936;2024-03-17T08:18:56;13.10;99.90
15343;DHT22;7771;48.478;8.936;2024-03-17T08:21:24;13.30;99.90
15343;DHT22;7771;48.478;8.936;2024-03-17T08:23:51;13.30;99.90
15343;DHT22;7771;48.478;8.936;2024-03-17T08:26:18;13.30;99.90
15343;DHT22;7771;48.478;8.936;2024-03-17T08:28:45;13.30;99.90
15343;DHT22;7771;48.478;8.936;2024-03-17T08:31:12;13.40;99.90
15343;DHT22;7771;48.478;8.936;2024-03-17T08:33:39;13.40;99.90
15343;DHT22;7771;48.478;8.936;2024-03-17T08:36:07;13.50;99.90
15343;DHT22;7771;48.478;8.936;2024-03-17T08:38:33;13.70;99.90
15343;DHT22;7771;48.478;8.936;2024-03-17T08:41:02;13.80;99.90
15343;DHT22;7771;48.478;8.936;2024-03-17T08:43:29;13.90;99.90
15343;DHT22;7771;48.478;8.936;2024-03-17T08:45:56;13.90;99.90
15343;DHT22;7771;48.478;8.936;2024-03-17T08:48:23;13.90;99.90
15343;DHT22;7771;48.478;8.936;2024-03-17T08:50:51;14.00;99.90
15343;DHT22;7771;48.478;8.936;2024-03-17T08:53:18;14.00;99.90
15343;DHT22;7771;48.478;8.936;2024-03-17T08:55:45;14.00;99.90
15343;DHT22;7771;48.478;8.936;2024-03-17T08:58:13;14.00;99.90
15343;DHT22;7771;48.478;8.936;2024-03-17T09:00:40;14.00;99.90
15343;DHT22;7771;48.478;8.936;2024-03-17T09:05:38;14.10;99.90
15343;DHT22;7771;48.478;8.936;2024-03-17T09:08:06;14.20;99.90
15343;DHT22;7771;48.478;8.936;2024-03-17T09:10:32;14.10;99.90
15343;DHT22;7771;48.478;8.936;2024-03-17T09:12:59;14.20;99.90
15343;DHT22;7771;48.478;8.936;2024-03-17T09:15:27;14.20;99.90
15343;DHT22;7771;48.478;8.936;2024-03-17T09:17:54;14.20;99.90
15343;DHT22;7771;48.478;8.936;2024-03-17T09:20:21;14.20;99.90
15343;DHT22;7771;48.478;8.936;2024-03-17T09:22:49;14.20;99.90
15343;DHT22;7771;48.478;8.936;2024-03-17T09:25:16;14.20;99.90
15343;DHT22;7771;48.478;8.936;2024-03-17T09:27:44;14.30;99.90
15343;DHT22;7771;48.478;8.936;2024-03-17T09:30:11;14.30;99.90
15343;DHT22;7771;48.478;8.936;2024-03-17T09:32:38;14.30;99.90
15343;DHT22;7771;48.478;8.936;2024-03-17T09:35:05;14.40;99.90
15343;DHT22;7771;48.478;8.936;2024-03-17T09:37:32;14.40;99.90
15343;DHT22;7771;48.478;8.936;2024-03-17T09:40:00;14.40;99.90
15343;DHT22;7771;48.478;8.936;2024-03-17T09:42:27;14.50;99.90
15343;DHT22;7771;48.478;8.936;2024-03-17T09:44:54;14.70;99.90
15343;DHT22;7771;48.478;8.936;2024-03-17T09:47:22;14.80;99.90
15343;DHT22;7771;48.478;8.936;2024-03-17T09:49:49;15.00;99.90
15343;DHT22;7771;48.478;8.936;2024-03-17T09:52:19;15.10;99.90
15343;DHT22;7771;48.478;8.936;2024-03-17T09:54:44;15.30;99.90
15343;DHT22;7771;48.478;8.936;2024-03-17T09:57:15;15.50;99.90
15343;DHT22;7771;48.478;8.936;2024-03-17T09:59:39;15.70;99.90
15343;DHT22;7771;48.478;8.936;2024-03-17T10:02:07;15.80;99.90
15343;DHT22;7771;48.478;8.936;2024-03-17T10:07:01;16.00;99.90
15343;DHT22;7771;48.478;8.936;2024-03-17T10:09:28;16.10;99.90
15343;DHT22;7771;48.478;8.936;2024-03-17T10:11:55;16.10;99.90
15343;DHT22;7771;48.478;8.936;2024-03-17T10:16:50;16.10;99.90
15343;DHT22;7771;48.478;8.936;2024-03-17T10:19:24;16.10;99.90
15343;DHT22;7771;48.478;8.936;2024-03-17T10:21:58;16.20;99.90
15343;DHT22;7771;48.478;8.936;2024-03-17T10:24:19;16.20;99.90
15343;DHT22;7771;48.478;8.936;2024-03-17T10:26:48;16.20;99.90
15343;DHT22;7771;48.478;8.936;2024-03-17T10:29:31;16.20;99.90
15343;DHT22;7771;48.478;8.936;2024-03-17T10:37:13;16.30;99.90
15343;DHT22;7771;48.478;8.936;2024-03-17T10:42:08;16.30;99.90
15343;DHT22;7771;48.478;8.936;2024-03-17T10:47:02;16.40;99.90
15343;DHT22;7771;48.478;8.936;2024-03-17T10:49:32;16.40;99.90
15343;DHT22;7771;48.478;8.936;2024-03-17T10:52:00;16.40;99.90
15343;DHT22;7771;48.478;8.936;2024-03-17T10:54:26;16.40;99.90
15343;DHT22;7771;48.478;8.936;2024-03-17T10:56:56;16.30;99.90
15343;DHT22;7771;48.478;8.936;2024-03-17T11:01:59;16.40;99.90
15343;DHT22;7771;48.478;8.936;2024-03-17T11:04:26;16.40;99.90
15343;DHT22;7771;48.478;8.936;2024-03-17T11:06:53;16.40;99.90
15343;DHT22;7771;48.478;8.936;2024-03-17T11:09:20;16.40;99.90
15343;DHT22;7771;48.478;8.936;2024-03-17T11:11:49;16.40;99.90
15343;DHT22;7771;48.478;8.936;2024-03-17T11:14:16;16.60;99.90
15343;DHT22;7771;48.478;8.936;2024-03-17T11:16:42;16.50;99.90
15343;DHT22;7771;48.478;8.936;2024-03-17T11:19:12;16.50;99.90
15343;DHT22;7771;48.478;8.936;2024-03-17T11:21:35;16.50;99.90
15343;DHT22;7771;48.478;8.936;2024-03-17T11:24:03;16.50;99.90
15343;DHT22;7771;48.478;8.936;2024-03-17T11:26:30;16.60;99.90
15343;DHT22;7771;48.478;8.936;2024-03-17T11:28:57;16.70;99.90
15343;DHT22;7771;48.478;8.936;2024-03-17T11:31:35;16.70;99.90
15343;DHT22;7771;48.478;8.936;2024-03-17T11:34:02;16.80;99.90
15343;DHT22;7771;48.478;8.936;2024-03-17T11:36:34;16.80;99.90
15343;DHT22;7771;48.478;8.936;2024-03-17T11:39:02;16.80;99.90
15343;DHT22;7771;48.478;8.936;2024-03-17T11:41:37;16.80;99.90
15343;DHT22;7771;48.478;8.936;2024-03-17T11:46:59;16.90;99.90
15343;DHT22;7771;48.478;8.936;2024-03-17T11:49:26;17.00;99.90
15343;DHT22;7771;48.478;8.936;2024-03-17T11:51:53;17.10;99.90
15343;DHT22;7771;48.478;8.936;2024-03-17T11:54:20;17.10;99.90
15343;DHT22;7771;48.478;8.936;2024-03-17T11:56:48;17.10;99.90
15343;DHT22;7771;48.478;8.936;2024-03-17T11:59:14;17.20;99.90
15343;DHT22;7771;48.478;8.936;2024-03-17T12:01:41;17.20;99.90
15343;DHT22;7771;48.478;8.936;2024-03-17T12:04:09;17.20;99.90
15343;DHT22;7771;48.478;8.936;2024-03-17T12:06:36;17.20;99.90
15343;DHT22;7771;48.478;8.936;2024-03-17T12:09:19;17.30;99.90
15343;DHT22;7771;48.478;8.936;2024-03-17T12:11:58;17.30;99.90
15343;DHT22;7771;48.478;8.936;2024-03-17T12:14:19;17.30;99.90
15343;DHT22;7771;48.478;8.936;2024-03-17T12:16:50;17.30;99.90
15343;DHT22;7771;48.478;8.936;2024-03-17T12:19:16;17.30;99.90
15343;DHT22;7771;48.478;8.936;2024-03-17T12:21:48;17.40;99.90
15343;DHT22;7771;48.478;8.936;2024-03-17T12:24:15;17.60;99.90
15343;DHT22;7771;48.478;8.936;2024-03-17T12:26:42;17.70;99.90
15343;DHT22;7771;48.478;8.936;2024-03-17T12:31:49;17.90;99.90
15343;DHT22;7771;48.478;8.936;2024-03-17T12:34:16;17.90;99.90
15343;DHT22;7771;48.478;8.936;2024-03-17T12:36:45;18.00;99.60
15343;DHT22;7771;48.478;8.936;2024-03-17T12:39:20;18.00;99.70
15343;DHT22;7771;48.478;8.936;2024-03-17T12:44:26;17.90;99.60
15343;DHT22;7771;48.478;8.936;2024-03-17T12:49:23;18.00;99.70
15343;DHT22;7771;48.478;8.936;2024-03-17T12:51:52;18.00;99.90
15343;DHT22;7771;48.478;8.936;2024-03-17T12:54:21;18.00;99.90
15343;DHT22;7771;48.478;8.936;2024-03-17T12:56:47;18.10;99.90
15343;DHT22;7771;48.478;8.936;2024-03-17T12:59:19;18.20;99.60
15343;DHT22;7771;48.478;8.936;2024-03-17T13:01:52;18.20;99.30
15343;DHT22;7771;48.478;8.936;2024-03-17T13:04:19;18.30;99.30
15343;DHT22;7771;48.478;8.936;2024-03-17T13:06:46;18.30;98.40
15343;DHT22;7771;48.478;8.936;2024-03-17T13:09:13;18.30;97.70
15343;DHT22;7771;48.478;8.936;2024-03-17T13:11:40;18.30;97.70
15343;DHT22;7771;48.478;8.936;2024-03-17T13:14:07;18.20;97.90
15343;DHT22;7771;48.478;8.936;2024-03-17T13:16:33;18.20;98.20
15343;DHT22;7771;48.478;8.936;2024-03-17T13:19:00;18.00;98.10
15343;DHT22;7771;48.478;8.936;2024-03-17T13:21:27;18.00;98.50
15343;DHT22;7771;48.478;8.936;2024-03-17T13:23:54;18.00;98.50
15343;DHT22;7771;48.478;8.936;2024-03-17T13:26:21;18.00;97.70
15343;DHT22;7771;48.478;8.936;2024-03-17T13:28:50;18.00;96.50
15343;DHT22;7771;48.478;8.936;2024-03-17T13:31:16;18.00;96.50
15343;DHT22;7771;48.478;8.936;2024-03-17T13:33:43;17.90;96.60
15343;DHT22;7771;48.478;8.936;2024-03-17T13:36:11;17.90;97.10
15343;DHT22;7771;48.478;8.936;2024-03-17T13:38:38;17.90;96.70
15343;DHT22;7771;48.478;8.936;2024-03-17T13:41:04;17.90;96.60
15343;DHT22;7771;48.478;8.936;2024-03-17T13:43:32;17.90;97.10
15343;DHT22;7771;48.478;8.936;2024-03-17T13:48:26;17.90;96.90
15343;DHT22;7771;48.478;8.936;2024-03-17T13:50:53;17.80;96.90
15343;DHT22;7771;48.478;8.936;2024-03-17T13:53:20;17.80;97.20
15343;DHT22;7771;48.478;8.936;2024-03-17T13:55:47;17.80;97.10
15343;DHT22;7771;48.478;8.936;2024-03-17T13:58:13;17.80;97.30
15343;DHT22;7771;48.478;8.936;2024-03-17T14:00:40;17.70;97.50
15343;DHT22;7771;48.478;8.936;2024-03-17T14:03:07;17.70;97.40
15343;DHT22;7771;48.478;8.936;2024-03-17T14:08:01;17.70;97.70
15343;DHT22;7771;48.478;8.936;2024-03-17T14:10:29;17.70;98.00
15343;DHT22;7771;48.478;8.936;2024-03-17T14:12:56;17.70;98.00
15343;DHT22;7771;48.478;8.936;2024-03-17T14:15:23;17.70;97.70
15343;DHT22;7771;48.478;8.936;2024-03-17T14:17:51;17.70;97.70
15343;DHT22;7771;48.478;8.936;2024-03-17T14:20:17;17.60;97.90
15343;DHT22;7771;48.478;8.936;2024-03-17T14:22:44;17.60;98.20
15343;DHT22;7771;48.478;8.936;2024-03-17T14:25:12;17.60;98.70
15343;DHT22;7771;48.478;8.936;2024-03-17T14:27:40;17.70;98.70
15343;DHT22;7771;48.478;8.936;2024-03-17T14:30:07;17.70;98.40
15343;DHT22;7771;48.478;8.936;2024-03-17T14:32:34;17.60;98.70
15343;DHT22;7771;48.478;8.936;2024-03-17T14:35:01;17.60;98.90
15343;DHT22;7771;48.478;8.936;2024-03-17T14:37:27;17.50;99.00
15343;DHT22;7771;48.478;8.936;2024-03-17T14:39:54;17.40;99.10
15343;DHT22;7771;48.478;8.936;2024-03-17T14:42:21;17.40;99.50
15343;DHT22;7771;48.478;8.936;2024-03-17T14:44:49;17.40;99.30
15343;DHT22;7771;48.478;8.936;2024-03-17T14:47:16;17.50;98.90
15343;DHT22;7771;48.478;8.936;2024-03-17T14:49:44;17.50;98.40
15343;DHT22;7771;48.478;8.936;2024-03-17T14:52:12;17.50;98.20
15343;DHT22;7771;48.478;8.936;2024-03-17T14:54:40;17.50;97.90
15343;DHT22;7771;48.478;8.936;2024-03-17T14:57:06;17.50;97.80
15343;DHT22;7771;48.478;8.936;2024-03-17T14:59:34;17.50;98.10
15343;DHT22;7771;48.478;8.936;2024-03-17T15:02:00;17.40;98.30
15343;DHT22;7771;48.478;8.936;2024-03-17T15:04:29;17.40;98.60
15343;DHT22;7771;48.478;8.936;2024-03-17T15:06:56;17.40;98.60
15343;DHT22;7771;48.478;8.936;2024-03-17T15:09:23;17.40;98.60
15343;DHT22;7771;48.478;8.936;2024-03-17T15:11:49;17.40;98.50
15343;DHT22;7771;48.478;8.936;2024-03-17T15:14:16;17.20;98.60
15343;DHT22;7771;48.478;8.936;2024-03-17T15:16:43;17.20;99.10
15343;DHT22;7771;48.478;8.936;2024-03-17T15:19:10;17.10;98.60
15343;DHT22;7771;48.478;8.936;2024-03-17T15:21:37;17.10;98.60
15343;DHT22;7771;48.478;8.936;2024-03-17T15:24:03;17.00;98.90
15343;DHT22;7771;48.478;8.936;2024-03-17T15:26:30;16.80;99.10
15343;DHT22;7771;48.478;8.936;2024-03-17T15:28:57;16.80;99.40
15343;DHT22;7771;48.478;8.936;2024-03-17T15:31:25;16.80;99.60
15343;DHT22;7771;48.478;8.936;2024-03-17T15:33:51;16.70;99.80
15343;DHT22;7771;48.478;8.936;2024-03-17T15:36:18;16.70;99.90
15343;DHT22;7771;48.478;8.936;2024-03-17T15:38:45;16.70;99.90
15343;DHT22;7771;48.478;8.936;2024-03-17T15:41:13;16.70;99.90
15343;DHT22;7771;48.478;8.936;2024-03-17T15:43:40;16.70;99.90
15343;DHT22;7771;48.478;8.936;2024-03-17T15:46:08;16.60;99.90
15343;DHT22;7771;48.478;8.936;2024-03-17T15:48:35;16.60;99.90
15343;DHT22;7771;48.478;8.936;2024-03-17T15:51:02;16.50;99.90
15343;DHT22;7771;48.478;8.936;2024-03-17T15:53:29;16.50;99.90
15343;DHT22;7771;48.478;8.936;2024-03-17T15:55:56;16.50;99.90
15343;DHT22;7771;48.478;8.936;2024-03-17T15:58:22;16.50;99.90
15343;DHT22;7771;48.478;8.936;2024-03-17T16:00:50;16.50;99.90
15343;DHT22;7771;48.478;8.936;2024-03-17T16:03:18;16.50;99.90
15343;DHT22;7771;48.478;8.936;2024-03-17T16:05:48;16.40;99.90
15343;DHT22;7771;48.478;8.936;2024-03-17T16:08:16;16.30;99.90
15343;DHT22;7771;48.478;8.936;2024-03-17T16:10:45;16.30;99.90
15343;DHT22;7771;48.478;8.936;2024-03-17T16:13:14;16.30;99.90
15343;DHT22;7771;48.478;8.936;2024-03-17T16:15:39;16.30;99.90
15343;DHT22;7771;48.478;8.936;2024-03-17T16:18:06;16.20;99.90
15343;DHT22;7771;48.478;8.936;2024-03-17T16:23:15;16.10;99.90
15343;DHT22;7771;48.478;8.936;2024-03-17T16:28:10;16.00;99.90
15343;DHT22;7771;48.478;8.936;2024-03-17T16:30:40;16.00;99.90
15343;DHT22;7771;48.478;8.936;2024-03-17T16:33:09;15.90;99.90
15343;DHT22;7771;48.478;8.936;2024-03-17T16:35:36;15.90;99.90
15343;DHT22;7771;48.478;8.936;2024-03-17T16:38:05;15.90;99.90
15343;DHT22;7771;48.478;8.936;2024-03-17T16:40:32;15.90;99.90
15343;DHT22;7771;48.478;8.936;2024-03-17T16:42:59;15.80;99.90
15343;DHT22;7771;48.478;8.936;2024-03-17T16:45:26;15.80;99.90
15343;DHT22;7771;48.478;8.936;2024-03-17T16:47:52;15.70;99.90
15343;DHT22;7771;48.478;8.936;2024-03-17T16:50:19;15.70;99.90
15343;DHT22;7771;48.478;8.936;2024-03-17T16:52:47;15.70;99.90
15343;DHT22;7771;48.478;8.936;2024-03-17T16:55:14;15.60;99.90
15343;DHT22;7771;48.478;8.936;2024-03-17T16:57:42;15.60;99.90
15343;DHT22;7771;48.478;8.936;2024-03-17T17:00:09;15.60;99.90
15343;DHT22;7771;48.478;8.936;2024-03-17T17:02:41;15.60;99.90
15343;DHT22;7771;48.478;8.936;2024-03-17T17:05:09;15.50;99.90
15343;DHT22;7771;48.478;8.936;2024-03-17T17:07:37;15.50;99.90
15343;DHT22;7771;48.478;8.936;2024-03-17T17:15:00;15.50;99.90
15343;DHT22;7771;48.478;8.936;2024-03-17T17:17:28;15.40;99.90
15343;DHT22;7771;48.478;8.936;2024-03-17T17:19:55;15.40;99.90
15343;DHT22;7771;48.478;8.936;2024-03-17T17:22:22;15.40;99.90
15343;DHT22;7771;48.478;8.936;2024-03-17T17:24:50;15.40;99.90
15343;DHT22;7771;48.478;8.936;2024-03-17T17:27:16;15.40;99.90
15343;DHT22;7771;48.478;8.936;2024-03-17T17:32:12;15.30;99.90
15343;DHT22;7771;48.478;8.936;2024-03-17T17:34:38;15.30;99.90
15343;DHT22;7771;48.478;8.936;2024-03-17T17:37:05;15.20;99.90
15343;DHT22;7771;48.478;8.936;2024-03-17T17:39:32;15.20;99.90
15343;DHT22;7771;48.478;8.936;2024-03-17T17:42:00;15.20;99.90
15343;DHT22;7771;48.478;8.936;2024-03-17T17:44:29;15.20;99.90
15343;DHT22;7771;48.478;8.936;2024-03-17T17:46:56;15.20;99.90